createdAt,value
2023-03-13T00:00:47.354Z,5.93
2023-03-13T00:03:13.872Z,6.95
2023-03-13T00:05:40.419Z,7.00
2023-03-13T00:08:06.973Z,5.88
2023-03-13T00:10:33.469Z,6.65
2023-03-13T00:12:59.998Z,6.38
2023-03-13T00:15:26.558Z,5.88
2023-03-13T00:17:53.190Z,7.00
2023-03-13T00:20:19.675Z,6.32
2023-03-13T00:22:46.190Z,6.43
2023-03-13T00:25:12.680Z,7.28
2023-03-13T00:27:39.286Z,6.70
2023-03-13T00:30:06.224Z,6.25
2023-03-13T00:32:33.465Z,7.20
2023-03-13T00:35:00.330Z,5.63
2023-03-13T00:37:26.839Z,6.30
2023-03-13T00:39:53.376Z,7.65
2023-03-13T00:42:19.844Z,7.18
2023-03-13T00:44:46.345Z,7.45
2023-03-13T00:47:12.967Z,7.03
2023-03-13T00:49:39.473Z,7.50
2023-03-13T00:52:06.350Z,6.72
2023-03-13T00:54:32.910Z,7.43
2023-03-13T00:56:59.409Z,7.72
2023-03-13T00:59:25.912Z,7.60
2023-03-13T01:01:52.565Z,8.43
2023-03-13T01:04:19.180Z,7.93
2023-03-13T01:06:45.757Z,8.85
2023-03-13T01:09:14.994Z,9.70
2023-03-13T01:11:42.900Z,8.23
2023-03-13T01:14:13.225Z,8.40
2023-03-13T01:16:40.718Z,7.95
2023-03-13T01:19:12.596Z,9.52
2023-03-13T01:21:40.643Z,8.70
2023-03-13T01:24:07.402Z,9.35
2023-03-13T01:26:33.964Z,9.85
2023-03-13T01:29:00.568Z,9.85
2023-03-13T01:31:29.897Z,9.77
2023-03-13T01:33:58.863Z,9.80
2023-03-13T01:36:25.935Z,9.93
2023-03-13T01:38:57.357Z,9.60
2023-03-13T01:41:24.790Z,10.35
2023-03-13T01:43:51.784Z,8.05
2023-03-13T01:46:24.586Z,8.63
2023-03-13T01:48:57.339Z,8.90
2023-03-13T01:51:28.066Z,8.45
2023-03-13T01:54:10.405Z,7.85
2023-03-13T01:56:49.009Z,7.63
2023-03-13T01:59:18.619Z,7.85
2023-03-13T02:01:46.419Z,6.97
2023-03-13T02:04:14.618Z,7.78
2023-03-13T02:06:44.113Z,7.43
2023-03-13T02:09:15.047Z,7.22
2023-03-13T02:11:49.035Z,7.32
2023-03-13T02:14:17.696Z,6.93
2023-03-13T02:16:48.913Z,6.95
2023-03-13T02:19:45.678Z,6.85
2023-03-13T02:22:18.700Z,7.57
2023-03-13T02:24:57.006Z,8.02
2023-03-13T02:27:24.138Z,7.18
2023-03-13T02:29:51.729Z,8.15
2023-03-13T02:32:18.593Z,7.93
2023-03-13T02:34:47.262Z,6.68
2023-03-13T02:37:14.890Z,7.28
2023-03-13T02:39:46.695Z,6.68
2023-03-13T02:42:14.893Z,7.22
2023-03-13T02:44:42.237Z,6.15
2023-03-13T02:47:11.604Z,5.85
2023-03-13T02:49:38.345Z,5.93
2023-03-13T02:52:11.913Z,5.40
2023-03-13T02:54:39.304Z,5.50
2023-03-13T02:57:05.969Z,5.55
2023-03-13T02:59:32.737Z,4.53
2023-03-13T03:01:59.365Z,4.13
2023-03-13T03:04:26.624Z,3.83
2023-03-13T03:06:53.526Z,3.58
2023-03-13T03:09:22.591Z,3.50
2023-03-13T03:11:49.410Z,3.45
2023-03-13T03:14:16.260Z,4.40
2023-03-13T03:16:43.227Z,3.60
2023-03-13T03:19:11.027Z,4.28
2023-03-13T03:21:38.329Z,4.50
2023-03-13T03:24:05.429Z,3.97
2023-03-13T03:26:32.230Z,4.32
2023-03-13T03:28:58.788Z,4.43
2023-03-13T03:31:25.448Z,4.55
2023-03-13T03:33:52.130Z,4.35
2023-03-13T03:36:21.461Z,4.35
2023-03-13T03:38:48.353Z,5.22
2023-03-13T03:41:15.339Z,4.90
2023-03-13T03:43:42.328Z,5.03
2023-03-13T03:46:09.418Z,4.38
2023-03-13T03:48:36.005Z,4.70
2023-03-13T03:51:02.499Z,4.05
2023-03-13T03:53:29.043Z,4.45
2023-03-13T03:55:55.616Z,4.93
2023-03-13T03:58:22.180Z,4.60
2023-03-13T04:00:49.318Z,4.47
2023-03-13T04:03:16.945Z,4.22
2023-03-13T04:05:43.840Z,4.32
2023-03-13T04:08:10.587Z,5.20
2023-03-13T04:10:37.152Z,5.20
2023-03-13T04:13:03.716Z,4.82
2023-03-13T04:15:30.593Z,5.43
2023-03-13T04:17:57.141Z,5.13
2023-03-13T04:20:23.637Z,5.72
2023-03-13T04:22:50.146Z,5.88
2023-03-13T04:25:16.904Z,5.85
2023-03-13T04:27:43.742Z,6.32
2023-03-13T04:30:10.875Z,5.78
2023-03-13T04:32:37.562Z,5.95
2023-03-13T04:35:04.567Z,5.25
2023-03-13T04:37:31.293Z,5.32
2023-03-13T04:39:57.944Z,5.18
2023-03-13T04:42:24.555Z,5.28
2023-03-13T04:44:51.066Z,4.95
2023-03-13T04:47:17.650Z,4.20
2023-03-13T04:49:44.184Z,3.83
2023-03-13T04:52:10.846Z,3.55
2023-03-13T04:54:37.653Z,3.70
2023-03-13T04:57:04.339Z,3.47
2023-03-13T04:59:30.962Z,3.70
2023-03-13T05:01:57.493Z,3.70
2023-03-13T05:04:24.737Z,3.67
2023-03-13T05:06:51.432Z,3.90
2023-03-13T05:09:18.084Z,3.70
2023-03-13T05:11:44.701Z,3.50
2023-03-13T05:14:11.566Z,3.83
2023-03-13T05:16:39.156Z,3.40
2023-03-13T05:19:05.754Z,3.75
2023-03-13T05:21:32.486Z,3.25
2023-03-13T05:23:59.074Z,3.97
2023-03-13T05:26:25.627Z,2.97
2023-03-13T05:28:52.105Z,3.70
2023-03-13T05:31:18.600Z,3.60
2023-03-13T05:33:45.118Z,3.45
2023-03-13T05:36:11.681Z,3.25
2023-03-13T05:38:38.422Z,4.18
2023-03-13T05:41:05.038Z,4.15
2023-03-13T05:43:31.551Z,3.13
2023-03-13T05:45:58.096Z,4.00
2023-03-13T05:48:24.582Z,2.75
2023-03-13T05:50:51.107Z,4.22
2023-03-13T05:53:17.666Z,3.28
2023-03-13T05:55:44.276Z,3.78
2023-03-13T05:58:10.782Z,3.30
2023-03-13T06:00:37.330Z,3.47
2023-03-13T06:03:03.869Z,3.28
2023-03-13T06:05:30.416Z,3.53
2023-03-13T06:07:56.905Z,2.75
2023-03-13T06:10:23.438Z,3.28
2023-03-13T06:12:54.380Z,3.17
2023-03-13T06:15:20.927Z,3.33
2023-03-13T06:17:47.577Z,3.90
2023-03-13T06:20:14.668Z,4.95
2023-03-13T06:22:41.996Z,3.92
2023-03-13T06:25:09.133Z,4.70
2023-03-13T06:27:35.729Z,4.85
2023-03-13T06:30:02.845Z,4.90
2023-03-13T06:32:29.523Z,3.95
2023-03-13T06:34:56.193Z,5.38
2023-03-13T06:37:22.735Z,4.93
2023-03-13T06:39:49.261Z,4.65
2023-03-13T06:42:15.890Z,5.25
2023-03-13T06:44:42.426Z,5.18
2023-03-13T06:47:09.155Z,4.78
2023-03-13T06:49:36.335Z,5.70
2023-03-13T06:52:02.873Z,3.88
2023-03-13T06:54:29.389Z,4.07
2023-03-13T06:56:55.912Z,4.97
2023-03-13T06:59:22.426Z,4.68
2023-03-13T07:01:49.051Z,4.40
2023-03-13T07:04:16.517Z,4.05
2023-03-13T07:06:43.439Z,3.97
2023-03-13T07:09:10.870Z,4.72
2023-03-13T07:11:37.544Z,4.63
2023-03-13T07:14:15.635Z,5.00
2023-03-13T07:16:43.400Z,4.32
2023-03-13T07:19:10.329Z,4.13
2023-03-13T07:21:37.352Z,4.18
2023-03-13T07:24:04.299Z,4.57
2023-03-13T07:26:30.868Z,4.18
2023-03-13T07:28:57.543Z,4.18
2023-03-13T07:31:24.651Z,3.67
2023-03-13T07:33:56.520Z,4.63
2023-03-13T07:36:23.603Z,3.25
2023-03-13T07:38:51.096Z,3.80
2023-03-13T07:41:18.674Z,3.25
2023-03-13T07:43:46.166Z,3.38
2023-03-13T07:46:18.582Z,3.22
2023-03-13T07:48:46.357Z,3.58
2023-03-13T07:51:16.442Z,2.70
2023-03-13T07:53:44.189Z,2.72
2023-03-13T07:56:18.471Z,2.70
2023-03-13T07:58:45.652Z,2.78
2023-03-13T08:01:14.415Z,2.42
2023-03-13T08:03:41.158Z,2.90
2023-03-13T08:06:13.306Z,2.25
2023-03-13T08:08:40.775Z,2.58
2023-03-13T08:11:12.701Z,2.58
2023-03-13T08:13:39.735Z,3.00
2023-03-13T08:16:14.071Z,2.42
2023-03-13T08:18:43.171Z,2.47
2023-03-13T08:21:17.361Z,2.72
2023-03-13T08:23:44.371Z,2.45
2023-03-13T08:26:15.899Z,3.03
2023-03-13T08:28:43.720Z,2.38
2023-03-13T08:31:19.210Z,2.67
2023-03-13T08:33:46.956Z,2.58
2023-03-13T08:36:33.493Z,3.10
2023-03-13T08:39:02.016Z,2.20
2023-03-13T08:41:30.557Z,2.40
2023-03-13T08:43:57.694Z,2.47
2023-03-13T08:46:24.978Z,2.33
2023-03-13T08:48:52.903Z,2.83
2023-03-13T08:51:20.813Z,2.13
2023-03-13T08:53:47.923Z,2.65
2023-03-13T08:56:16.550Z,2.97
2023-03-13T08:58:43.379Z,3.03
2023-03-13T09:01:14.421Z,2.63
2023-03-13T09:03:42.411Z,2.28
2023-03-13T09:06:09.982Z,3.05
2023-03-13T09:08:37.391Z,2.55
2023-03-13T09:11:09.273Z,2.90
2023-03-13T09:13:38.690Z,2.40
2023-03-13T09:16:07.660Z,2.13
2023-03-13T09:18:34.420Z,2.42
2023-03-13T09:21:01.588Z,1.80
2023-03-13T09:23:28.269Z,2.63
2023-03-13T09:25:56.713Z,2.10
2023-03-13T09:28:24.936Z,2.15
2023-03-13T09:33:19.037Z,1.95
2023-03-13T09:35:51.372Z,2.30
2023-03-13T09:38:19.259Z,1.65
2023-03-13T09:40:59.865Z,2.33
2023-03-13T09:43:42.716Z,1.95
2023-03-13T09:46:34.193Z,2.03
2023-03-13T09:49:04.253Z,1.92
2023-03-13T09:51:53.531Z,2.05
2023-03-13T09:54:25.278Z,2.00
2023-03-13T09:57:11.996Z,1.98
2023-03-13T09:59:46.779Z,1.60
2023-03-13T10:02:34.760Z,1.65
2023-03-13T10:05:26.523Z,1.88
2023-03-13T10:08:00.281Z,1.50
2023-03-13T10:10:40.597Z,1.73
2023-03-13T10:13:37.956Z,1.48
2023-03-13T10:16:17.532Z,2.47
2023-03-13T10:18:50.050Z,2.10
2023-03-13T10:21:18.644Z,2.42
2023-03-13T10:24:00.438Z,2.30
2023-03-13T10:26:32.787Z,2.22
2023-03-13T10:29:16.077Z,2.30
2023-03-13T10:31:50.160Z,2.80
2023-03-13T10:34:16.812Z,2.90
2023-03-13T10:36:45.863Z,3.00
2023-03-13T10:39:20.269Z,2.28
2023-03-13T10:41:48.577Z,2.97
2023-03-13T10:44:18.672Z,2.22
2023-03-13T10:46:47.570Z,2.10
2023-03-13T10:49:19.644Z,2.00
2023-03-13T10:51:53.269Z,2.75
2023-03-13T10:54:30.958Z,3.08
2023-03-13T10:57:21.768Z,2.60
2023-03-13T10:59:50.045Z,2.92
2023-03-13T11:02:42.832Z,3.65
2023-03-13T11:05:32.743Z,2.75
2023-03-13T11:07:59.848Z,4.40
2023-03-13T11:10:32.505Z,3.45
2023-03-13T11:12:59.620Z,3.55
2023-03-13T11:15:32.474Z,3.10
2023-03-13T11:18:16.547Z,3.03
2023-03-13T11:20:45.571Z,4.18
2023-03-13T11:23:19.129Z,3.97
2023-03-13T11:26:04.826Z,3.60
2023-03-13T11:29:01.629Z,4.43
2023-03-13T11:31:31.195Z,4.35
2023-03-13T11:34:12.769Z,4.13
2023-03-13T11:36:46.424Z,3.40
2023-03-13T11:39:29.055Z,4.10
2023-03-13T11:42:16.651Z,4.30
2023-03-13T11:44:46.118Z,4.53
2023-03-13T11:47:18.589Z,4.10
2023-03-13T11:50:06.221Z,4.45
2023-03-13T11:52:44.198Z,5.10
2023-03-13T11:55:16.719Z,4.70
2023-03-13T11:57:52.325Z,4.57
2023-03-13T12:00:31.684Z,4.75
2023-03-13T12:03:15.570Z,6.13
2023-03-13T12:05:55.834Z,4.75
2023-03-13T12:08:29.307Z,5.13
2023-03-13T12:11:05.484Z,5.40
2023-03-13T12:13:36.203Z,4.65
2023-03-13T12:16:09.438Z,5.57
2023-03-13T12:18:38.813Z,5.25
2023-03-13T12:21:33.387Z,5.53
2023-03-13T12:24:03.063Z,5.35
2023-03-13T12:26:39.573Z,4.57
2023-03-13T12:29:15.770Z,5.28
2023-03-13T12:31:49.217Z,5.60
2023-03-13T12:34:33.848Z,5.53
2023-03-13T12:37:12.934Z,6.55
2023-03-13T12:39:49.952Z,5.55
2023-03-13T12:42:20.817Z,5.30
2023-03-13T12:44:47.476Z,5.20
2023-03-13T12:47:24.377Z,5.13
2023-03-13T12:50:10.250Z,5.85
2023-03-13T12:53:20.422Z,5.05
2023-03-13T12:55:59.496Z,5.53
2023-03-13T12:58:47.405Z,6.25
2023-03-13T13:01:27.172Z,6.22
2023-03-13T13:04:01.042Z,5.00
2023-03-13T13:06:50.327Z,5.18
2023-03-13T13:09:23.436Z,5.43
2023-03-13T13:11:51.524Z,4.40
2023-03-13T13:14:18.003Z,4.75
2023-03-13T13:17:10.647Z,5.80
2023-03-13T13:19:40.079Z,5.47
2023-03-13T13:22:37.684Z,6.00
2023-03-13T13:25:10.284Z,5.95
2023-03-13T13:27:36.770Z,5.80
2023-03-13T13:30:25.433Z,5.78
2023-03-13T13:32:56.637Z,5.90
2023-03-13T13:35:26.419Z,6.28
2023-03-13T13:37:53.968Z,6.50
2023-03-13T13:40:32.068Z,5.20
2023-03-13T13:43:21.602Z,6.40
2023-03-13T13:46:01.116Z,6.18
2023-03-13T13:48:32.790Z,6.40
2023-03-13T13:51:11.594Z,6.47
2023-03-13T13:53:45.729Z,6.70
2023-03-13T13:56:36.721Z,7.00
2023-03-13T13:59:21.649Z,7.07
2023-03-13T14:01:50.472Z,6.47
2023-03-13T14:04:23.684Z,6.47
2023-03-13T14:06:52.072Z,7.72
2023-03-13T14:09:40.344Z,7.53
2023-03-13T14:12:35.912Z,6.95
2023-03-13T14:15:10.535Z,6.85
2023-03-13T14:20:24.938Z,5.78
2023-03-13T14:22:53.744Z,6.90
2023-03-13T14:25:24.659Z,5.97
2023-03-13T14:27:52.690Z,6.10
2023-03-13T14:30:20.812Z,6.18
2023-03-13T14:32:47.863Z,5.90
2023-03-13T14:35:19.519Z,6.93
2023-03-13T14:37:48.655Z,6.78
2023-03-13T14:40:15.367Z,6.07
2023-03-13T14:42:46.857Z,6.47
2023-03-13T14:45:15.844Z,6.25
2023-03-13T14:47:42.630Z,5.30
2023-03-13T14:50:14.872Z,4.97
2023-03-13T14:52:54.553Z,5.40
2023-03-13T14:55:21.197Z,7.10
2023-03-13T14:58:04.384Z,5.72
2023-03-13T15:00:43.048Z,5.88
2023-03-13T15:03:30.403Z,5.70
2023-03-13T15:06:12.232Z,5.43
2023-03-13T15:08:46.953Z,5.68
2023-03-13T15:11:39.219Z,5.97
2023-03-13T15:14:31.352Z,5.97
2023-03-13T15:16:57.859Z,5.80
2023-03-13T15:19:24.396Z,5.65
2023-03-13T15:21:51.955Z,6.60
2023-03-13T15:24:18.505Z,5.55
2023-03-13T15:26:47.170Z,5.63
2023-03-13T15:29:15.667Z,5.70
2023-03-13T15:31:42.303Z,7.22
2023-03-13T15:34:16.287Z,5.80
2023-03-13T15:36:43.234Z,5.50
2023-03-13T15:39:15.541Z,5.72
2023-03-13T15:41:43.088Z,6.50
2023-03-13T15:44:09.572Z,7.22
2023-03-13T15:46:36.657Z,6.25
2023-03-13T15:49:03.827Z,6.63
2023-03-13T15:51:30.817Z,6.10
2023-03-13T15:53:57.510Z,7.22
2023-03-13T15:56:24.102Z,6.20
2023-03-13T15:58:51.247Z,6.40
2023-03-13T16:01:18.698Z,6.10
2023-03-13T16:03:45.488Z,7.45
2023-03-13T16:06:21.523Z,5.72
2023-03-13T16:08:48.216Z,6.35
2023-03-13T16:11:16.411Z,6.70
2023-03-13T16:13:43.317Z,7.05
2023-03-13T16:16:25.756Z,5.85
2023-03-13T16:18:52.989Z,6.93
2023-03-13T16:21:27.815Z,8.07
2023-03-13T16:23:54.515Z,7.30
2023-03-13T16:26:27.215Z,6.47
2023-03-13T16:28:54.325Z,7.18
2023-03-13T16:31:20.966Z,6.80
2023-03-13T16:33:48.477Z,6.90
2023-03-13T16:36:17.443Z,7.32
2023-03-13T16:38:44.447Z,6.05
2023-03-13T16:41:18.019Z,5.93
2023-03-13T16:43:45.364Z,6.47
2023-03-13T16:46:20.872Z,6.03
2023-03-13T16:48:49.031Z,6.55
2023-03-13T16:51:18.607Z,6.80
2023-03-13T16:53:46.471Z,5.72
2023-03-13T16:56:43.317Z,6.13
2023-03-13T16:59:13.900Z,7.40
2023-03-13T17:01:40.941Z,6.88
2023-03-13T17:04:07.527Z,6.60
2023-03-13T17:06:38.957Z,6.18
2023-03-13T17:09:11.618Z,5.72
2023-03-13T17:11:38.154Z,5.85
2023-03-13T17:14:04.655Z,6.22
2023-03-13T17:16:41.469Z,5.45
2023-03-13T17:19:10.180Z,7.00
2023-03-13T17:21:37.084Z,6.45
2023-03-13T17:24:03.999Z,7.93
2023-03-13T17:26:36.008Z,5.97
2023-03-13T17:29:04.506Z,6.00
2023-03-13T17:31:37.097Z,5.90
2023-03-13T17:34:07.519Z,6.50
2023-03-13T17:36:34.927Z,6.22
2023-03-13T17:39:04.473Z,6.38
2023-03-13T17:41:33.294Z,7.80
2023-03-13T17:44:00.157Z,7.05
2023-03-13T17:46:47.155Z,6.35
2023-03-13T17:49:16.058Z,6.18
2023-03-13T17:51:44.542Z,5.57
2023-03-13T17:54:11.275Z,6.97
2023-03-13T17:56:40.378Z,6.40
2023-03-13T17:59:11.656Z,6.78
2023-03-13T18:01:38.241Z,6.65
2023-03-13T18:04:05.088Z,6.28
2023-03-13T18:06:36.763Z,7.53
2023-03-13T18:09:08.144Z,6.18
2023-03-13T18:11:36.207Z,6.28
2023-03-13T18:14:04.015Z,5.88
2023-03-13T18:16:38.208Z,6.35
2023-03-13T18:19:06.429Z,6.13
2023-03-13T18:21:33.566Z,6.13
2023-03-13T18:24:00.570Z,5.95
2023-03-13T18:26:31.050Z,6.53
2023-03-13T18:29:01.659Z,6.22
2023-03-13T18:31:30.542Z,6.13
2023-03-13T18:33:58.769Z,5.80
2023-03-13T18:36:26.345Z,6.40
2023-03-13T18:38:53.215Z,6.43
2023-03-13T18:41:20.447Z,6.72
2023-03-13T18:43:47.170Z,5.80
2023-03-13T18:46:34.653Z,6.43
2023-03-13T18:49:01.344Z,7.53
2023-03-13T18:51:28.629Z,6.85
2023-03-13T18:53:55.532Z,5.85
2023-03-13T18:56:31.145Z,6.10
2023-03-13T18:58:58.861Z,6.05
2023-03-13T19:01:28.024Z,6.00
2023-03-13T19:03:54.621Z,6.55
2023-03-13T19:06:25.385Z,6.13
2023-03-13T19:09:04.970Z,6.10
2023-03-13T19:11:33.622Z,5.80
2023-03-13T19:14:00.187Z,6.40
2023-03-13T19:16:35.119Z,6.90
2023-03-13T19:19:02.088Z,6.22
2023-03-13T19:21:30.024Z,5.88
2023-03-13T19:23:57.007Z,7.03
2023-03-13T19:26:30.533Z,7.00
2023-03-13T19:28:57.588Z,6.28
2023-03-13T19:31:24.343Z,6.75
2023-03-13T19:33:53.491Z,5.55
2023-03-13T19:36:22.672Z,6.75
2023-03-13T19:38:49.640Z,6.15
2023-03-13T19:41:16.619Z,5.82
2023-03-13T19:43:43.609Z,5.55
2023-03-13T19:46:23.642Z,5.70
2023-03-13T19:49:01.442Z,5.68
2023-03-13T19:51:29.272Z,5.30
2023-03-13T19:53:56.672Z,4.78
2023-03-13T19:56:31.092Z,5.60
2023-03-13T19:59:03.547Z,6.00
2023-03-13T20:01:30.952Z,5.50
2023-03-13T20:03:58.293Z,6.78
2023-03-13T20:06:29.273Z,5.57
2023-03-13T20:09:01.090Z,5.95
2023-03-13T20:11:28.381Z,6.85
2023-03-13T20:13:55.155Z,5.65
2023-03-13T20:16:22.425Z,5.30
2023-03-13T20:18:50.047Z,5.15
2023-03-13T20:21:17.382Z,5.43
2023-03-13T20:23:47.162Z,6.32
2023-03-13T20:26:15.506Z,5.07
2023-03-13T20:28:44.347Z,5.00
2023-03-13T20:31:11.440Z,4.65
2023-03-13T20:33:38.571Z,5.75
2023-03-13T20:36:11.470Z,5.10
2023-03-13T20:38:38.824Z,5.18
2023-03-13T20:41:05.795Z,5.55
2023-03-13T20:43:32.638Z,5.07
2023-03-13T20:46:01.764Z,5.35
2023-03-13T20:48:29.069Z,4.63
2023-03-13T20:50:57.168Z,5.05
2023-03-13T20:53:25.133Z,4.85
2023-03-13T20:55:52.207Z,4.82
2023-03-13T20:58:21.856Z,5.30
2023-03-13T21:00:48.834Z,4.97
2023-03-13T21:03:17.284Z,5.78
2023-03-13T21:08:10.766Z,4.50
2023-03-13T21:10:38.863Z,4.95
2023-03-13T21:13:05.825Z,4.63
2023-03-13T21:15:32.392Z,5.22
2023-03-13T21:17:59.464Z,4.57
2023-03-13T21:20:26.456Z,5.40
2023-03-13T21:22:53.274Z,5.43
2023-03-13T21:25:20.210Z,6.13
2023-03-13T21:27:46.987Z,5.82
2023-03-13T21:30:17.486Z,4.28
2023-03-13T21:32:44.701Z,5.78
2023-03-13T21:35:12.304Z,4.97
2023-03-13T21:37:39.196Z,4.55
2023-03-13T21:40:06.671Z,5.30
2023-03-13T21:42:36.266Z,4.57
2023-03-13T21:45:04.533Z,5.40
2023-03-13T21:47:31.699Z,5.03
2023-03-13T21:50:00.561Z,6.07
2023-03-13T21:52:28.013Z,5.63
2023-03-13T21:54:54.688Z,4.82
2023-03-13T21:57:21.247Z,4.65
2023-03-13T21:59:47.846Z,5.15
2023-03-13T22:02:14.523Z,4.68
2023-03-13T22:04:41.156Z,4.82
2023-03-13T22:07:07.686Z,5.38
2023-03-13T22:09:34.377Z,5.03
2023-03-13T22:12:00.913Z,4.60
2023-03-13T22:14:28.182Z,4.95
2023-03-13T22:16:55.119Z,4.90
2023-03-13T22:19:21.613Z,4.63
2023-03-13T22:21:48.256Z,5.03
2023-03-13T22:24:14.867Z,4.88
2023-03-13T22:26:41.448Z,5.50
2023-03-13T22:29:08.051Z,4.03
2023-03-13T22:31:34.701Z,3.83
2023-03-13T22:34:01.239Z,6.13
2023-03-13T22:36:27.750Z,4.28
2023-03-13T22:38:54.272Z,4.00
2023-03-13T22:41:20.868Z,4.50
2023-03-13T22:43:47.445Z,4.60
2023-03-13T22:46:14.237Z,3.97
2023-03-13T22:48:40.821Z,4.57
2023-03-13T22:51:09.156Z,3.47
2023-03-13T22:56:03.486Z,3.70
2023-03-13T22:58:31.219Z,3.83
2023-03-13T23:00:57.763Z,3.90
2023-03-13T23:03:24.451Z,4.40
2023-03-13T23:05:50.995Z,4.05
2023-03-13T23:08:17.530Z,4.30
2023-03-13T23:10:45.372Z,4.28
2023-03-13T23:13:12.647Z,3.80
2023-03-13T23:15:55.251Z,3.38
2023-03-13T23:18:24.125Z,3.90
2023-03-13T23:20:50.672Z,3.72
2023-03-13T23:23:17.175Z,3.67
2023-03-13T23:25:43.737Z,4.00
2023-03-13T23:28:10.410Z,3.85
2023-03-13T23:30:36.946Z,4.20
2023-03-13T23:33:03.659Z,3.17
2023-03-13T23:35:30.220Z,3.25
2023-03-13T23:37:56.774Z,3.75
2023-03-13T23:40:23.909Z,3.03
2023-03-13T23:42:51.191Z,2.92
2023-03-13T23:45:18.935Z,3.63
2023-03-13T23:47:45.839Z,3.33
2023-03-13T23:50:13.710Z,3.38
2023-03-13T23:52:40.744Z,3.25
2023-03-13T23:55:08.087Z,4.28
2023-03-13T23:57:37.538Z,2.80
